sensor_id;sensor_type;location;lat;lon;timestamp;P1;durP1;ratioP1;P2;durP2;ratioP2
52432;SDS011;38352;53.244;6.594;2023-03-16T00:02:10;5.47;;;2.50;;
52432;SDS011;38352;53.244;6.594;2023-03-16T00:04:36;6.93;;;2.00;;
52432;SDS011;38352;53.244;6.594;2023-03-16T00:07:06;5.93;;;2.50;;
52432;SDS011;38352;53.244;6.594;2023-03-16T00:09:33;5.90;;;2.28;;
52432;SDS011;38352;53.244;6.594;2023-03-16T00:12:00;6.53;;;2.83;;
52432;SDS011;38352;53.244;6.594;2023-03-16T00:14:27;4.93;;;2.40;;
52432;SDS011;38352;53.244;6.594;2023-03-16T00:16:53;7.10;;;2.72;;
52432;SDS011;38352;53.244;6.594;2023-03-16T00:19:19;6.05;;;2.65;;
52432;SDS011;38352;53.244;6.594;2023-03-16T00:21:49;6.78;;;2.78;;
52432;SDS011;38352;53.244;6.594;2023-03-16T00:24:15;5.95;;;2.50;;
52432;SDS011;38352;53.244;6.594;2023-03-16T00:26:45;5.43;;;2.30;;
52432;SDS011;38352;53.244;6.594;2023-03-16T00:29:11;5.50;;;2.80;;
52432;SDS011;38352;53.244;6.594;2023-03-16T00:31:38;7.43;;;3.00;;
52432;SDS011;38352;53.244;6.594;2023-03-16T00:34:04;6.05;;;2.70;;
52432;SDS011;38352;53.244;6.594;2023-03-16T00:36:30;7.03;;;2.88;;
52432;SDS011;38352;53.244;6.594;2023-03-16T00:38:58;6.95;;;2.92;;
52432;SDS011;38352;53.244;6.594;2023-03-16T00:41:24;8.40;;;2.70;;
52432;SDS011;38352;53.244;6.594;2023-03-16T00:43:50;8.90;;;2.90;;
52432;SDS011;38352;53.244;6.594;2023-03-16T00:46:17;6.40;;;2.72;;
52432;SDS011;38352;53.244;6.594;2023-03-16T00:48:45;7.32;;;3.03;;
52432;SDS011;38352;53.244;6.594;2023-03-16T00:51:15;5.25;;;2.40;;
52432;SDS011;38352;53.244;6.594;2023-03-16T00:53:42;5.95;;;2.50;;
52432;SDS011;38352;53.244;6.594;2023-03-16T00:56:09;7.00;;;2.70;;
52432;SDS011;38352;53.244;6.594;2023-03-16T00:58:36;6.53;;;2.80;;
52432;SDS011;38352;53.244;6.594;2023-03-16T01:01:04;9.05;;;3.38;;
52432;SDS011;38352;53.244;6.594;2023-03-16T01:03:30;6.55;;;2.65;;
52432;SDS011;38352;53.244;6.594;2023-03-16T01:05:56;7.25;;;2.83;;
52432;SDS011;38352;53.244;6.594;2023-03-16T01:08:25;7.22;;;2.75;;
52432;SDS011;38352;53.244;6.594;2023-03-16T01:10:54;6.45;;;2.88;;
52432;SDS011;38352;53.244;6.594;2023-03-16T01:13:21;9.07;;;2.67;;
52432;SDS011;38352;53.244;6.594;2023-03-16T01:15:50;4.82;;;2.50;;
52432;SDS011;38352;53.244;6.594;2023-03-16T01:18:16;5.43;;;2.47;;
52432;SDS011;38352;53.244;6.594;2023-03-16T01:20:42;5.47;;;2.80;;
52432;SDS011;38352;53.244;6.594;2023-03-16T01:23:15;5.97;;;2.67;;
52432;SDS011;38352;53.244;6.594;2023-03-16T01:25:41;8.35;;;3.00;;
52432;SDS011;38352;53.244;6.594;2023-03-16T01:28:07;7.75;;;3.05;;
52432;SDS011;38352;53.244;6.594;2023-03-16T01:30:33;5.28;;;2.60;;
52432;SDS011;38352;53.244;6.594;2023-03-16T01:33:00;7.20;;;2.55;;
52432;SDS011;38352;53.244;6.594;2023-03-16T01:35:26;6.80;;;3.05;;
52432;SDS011;38352;53.244;6.594;2023-03-16T01:37:52;12.38;;;3.47;;
52432;SDS011;38352;53.244;6.594;2023-03-16T01:40:18;7.13;;;2.95;;
52432;SDS011;38352;53.244;6.594;2023-03-16T01:42:45;5.38;;;2.83;;
52432;SDS011;38352;53.244;6.594;2023-03-16T01:47:56;6.07;;;2.90;;
52432;SDS011;38352;53.244;6.594;2023-03-16T01:50:22;5.90;;;3.08;;
52432;SDS011;38352;53.244;6.594;2023-03-16T01:52:49;6.38;;;2.92;;
52432;SDS011;38352;53.244;6.594;2023-03-16T01:55:16;5.93;;;3.28;;
52432;SDS011;38352;53.244;6.594;2023-03-16T01:57:44;6.75;;;3.38;;
52432;SDS011;38352;53.244;6.594;2023-03-16T02:00:12;6.68;;;3.60;;
52432;SDS011;38352;53.244;6.594;2023-03-16T02:02:56;9.07;;;3.70;;
52432;SDS011;38352;53.244;6.594;2023-03-16T02:05:34;6.70;;;3.38;;
52432;SDS011;38352;53.244;6.594;2023-03-16T02:08:03;8.43;;;3.55;;
52432;SDS011;38352;53.244;6.594;2023-03-16T02:10:30;7.93;;;3.55;;
52432;SDS011;38352;53.244;6.594;2023-03-16T02:12:57;7.53;;;3.70;;
52432;SDS011;38352;53.244;6.594;2023-03-16T02:15:24;6.50;;;3.60;;
52432;SDS011;38352;53.244;6.594;2023-03-16T02:17:51;11.27;;;4.55;;
52432;SDS011;38352;53.244;6.594;2023-03-16T02:22:50;12.35;;;4.28;;
52432;SDS011;38352;53.244;6.594;2023-03-16T02:25:24;7.93;;;4.40;;
52432;SDS011;38352;53.244;6.594;2023-03-16T02:30:23;11.27;;;4.43;;
52432;SDS011;38352;53.244;6.594;2023-03-16T02:32:49;7.00;;;3.97;;
52432;SDS011;38352;53.244;6.594;2023-03-16T02:35:17;9.02;;;4.55;;
52432;SDS011;38352;53.244;6.594;2023-03-16T02:37:43;9.20;;;4.22;;
52432;SDS011;38352;53.244;6.594;2023-03-16T02:40:16;8.63;;;4.40;;
52432;SDS011;38352;53.244;6.594;2023-03-16T02:42:46;9.70;;;4.25;;
52432;SDS011;38352;53.244;6.594;2023-03-16T02:45:12;7.25;;;3.95;;
52432;SDS011;38352;53.244;6.594;2023-03-16T02:47:42;10.25;;;4.28;;
52432;SDS011;38352;53.244;6.594;2023-03-16T02:50:09;7.63;;;3.92;;
52432;SDS011;38352;53.244;6.594;2023-03-16T02:52:36;11.05;;;4.80;;
52432;SDS011;38352;53.244;6.594;2023-03-16T02:55:04;7.88;;;4.18;;
52432;SDS011;38352;53.244;6.594;2023-03-16T02:57:30;10.70;;;4.50;;
52432;SDS011;38352;53.244;6.594;2023-03-16T02:59:56;11.48;;;4.40;;
52432;SDS011;38352;53.244;6.594;2023-03-16T03:02:23;8.77;;;3.88;;
52432;SDS011;38352;53.244;6.594;2023-03-16T03:04:49;10.27;;;4.43;;
52432;SDS011;38352;53.244;6.594;2023-03-16T03:07:19;10.07;;;4.75;;
52432;SDS011;38352;53.244;6.594;2023-03-16T03:09:45;7.95;;;4.25;;
52432;SDS011;38352;53.244;6.594;2023-03-16T03:12:11;8.05;;;4.18;;
52432;SDS011;38352;53.244;6.594;2023-03-16T03:14:38;6.93;;;4.07;;
52432;SDS011;38352;53.244;6.594;2023-03-16T03:17:08;11.05;;;4.53;;
52432;SDS011;38352;53.244;6.594;2023-03-16T03:19:35;10.82;;;3.92;;
52432;SDS011;38352;53.244;6.594;2023-03-16T03:22:02;10.30;;;4.22;;
52432;SDS011;38352;53.244;6.594;2023-03-16T03:24:30;9.60;;;4.22;;
52432;SDS011;38352;53.244;6.594;2023-03-16T03:26:57;6.85;;;3.85;;
52432;SDS011;38352;53.244;6.594;2023-03-16T03:29:30;8.07;;;4.18;;
52432;SDS011;38352;53.244;6.594;2023-03-16T03:31:58;7.40;;;4.10;;
52432;SDS011;38352;53.244;6.594;2023-03-16T03:34:25;7.30;;;3.78;;
52432;SDS011;38352;53.244;6.594;2023-03-16T03:36:51;7.38;;;3.53;;
52432;SDS011;38352;53.244;6.594;2023-03-16T03:39:18;6.75;;;4.00;;
52432;SDS011;38352;53.244;6.594;2023-03-16T03:41:44;7.15;;;3.92;;
52432;SDS011;38352;53.244;6.594;2023-03-16T03:44:10;7.97;;;3.50;;
52432;SDS011;38352;53.244;6.594;2023-03-16T03:46:36;6.97;;;3.75;;
52432;SDS011;38352;53.244;6.594;2023-03-16T03:49:02;9.35;;;3.70;;
52432;SDS011;38352;53.244;6.594;2023-03-16T03:51:30;11.05;;;4.07;;
52432;SDS011;38352;53.244;6.594;2023-03-16T03:53:56;10.27;;;3.58;;
52432;SDS011;38352;53.244;6.594;2023-03-16T03:56:22;5.75;;;3.25;;
52432;SDS011;38352;53.244;6.594;2023-03-16T03:58:48;6.53;;;3.70;;
52432;SDS011;38352;53.244;6.594;2023-03-16T04:01:14;7.47;;;3.55;;
52432;SDS011;38352;53.244;6.594;2023-03-16T04:03:41;8.40;;;3.67;;
52432;SDS011;38352;53.244;6.594;2023-03-16T04:06:07;7.32;;;3.65;;
52432;SDS011;38352;53.244;6.594;2023-03-16T04:08:33;9.57;;;4.25;;
52432;SDS011;38352;53.244;6.594;2023-03-16T04:10:59;8.65;;;3.85;;
52432;SDS011;38352;53.244;6.594;2023-03-16T04:13:26;6.97;;;3.60;;
52432;SDS011;38352;53.244;6.594;2023-03-16T04:16:01;8.88;;;3.92;;
52432;SDS011;38352;53.244;6.594;2023-03-16T04:18:27;11.15;;;4.13;;
52432;SDS011;38352;53.244;6.594;2023-03-16T04:20:53;8.63;;;4.45;;
52432;SDS011;38352;53.244;6.594;2023-03-16T04:23:20;6.78;;;3.80;;
52432;SDS011;38352;53.244;6.594;2023-03-16T04:25:46;10.65;;;3.78;;
52432;SDS011;38352;53.244;6.594;2023-03-16T04:28:12;7.45;;;4.35;;
52432;SDS011;38352;53.244;6.594;2023-03-16T04:30:41;6.72;;;3.35;;
52432;SDS011;38352;53.244;6.594;2023-03-16T04:33:07;8.85;;;3.67;;
52432;SDS011;38352;53.244;6.594;2023-03-16T04:35:34;9.93;;;3.72;;
52432;SDS011;38352;53.244;6.594;2023-03-16T04:38:00;7.47;;;3.78;;
52432;SDS011;38352;53.244;6.594;2023-03-16T04:40:26;6.43;;;3.75;;
52432;SDS011;38352;53.244;6.594;2023-03-16T04:42:54;8.52;;;3.95;;
52432;SDS011;38352;53.244;6.594;2023-03-16T04:45:20;6.72;;;3.85;;
52432;SDS011;38352;53.244;6.594;2023-03-16T04:47:46;8.82;;;3.80;;
52432;SDS011;38352;53.244;6.594;2023-03-16T04:50:14;8.30;;;4.28;;
52432;SDS011;38352;53.244;6.594;2023-03-16T04:52:40;8.18;;;3.97;;
52432;SDS011;38352;53.244;6.594;2023-03-16T04:55:06;8.55;;;3.55;;
52432;SDS011;38352;53.244;6.594;2023-03-16T04:57:32;7.28;;;4.05;;
52432;SDS011;38352;53.244;6.594;2023-03-16T04:59:59;8.30;;;3.58;;
52432;SDS011;38352;53.244;6.594;2023-03-16T05:02:25;7.28;;;4.07;;
52432;SDS011;38352;53.244;6.594;2023-03-16T05:04:51;9.35;;;3.78;;
52432;SDS011;38352;53.244;6.594;2023-03-16T05:07:17;6.93;;;3.47;;
52432;SDS011;38352;53.244;6.594;2023-03-16T05:09:43;8.07;;;4.03;;
52432;SDS011;38352;53.244;6.594;2023-03-16T05:12:10;5.93;;;3.22;;
52432;SDS011;38352;53.244;6.594;2023-03-16T05:14:36;7.20;;;3.38;;
52432;SDS011;38352;53.244;6.594;2023-03-16T05:17:02;11.38;;;3.92;;
52432;SDS011;38352;53.244;6.594;2023-03-16T05:19:29;12.23;;;5.05;;
52432;SDS011;38352;53.244;6.594;2023-03-16T05:21:55;9.82;;;4.05;;
52432;SDS011;38352;53.244;6.594;2023-03-16T05:24:21;10.18;;;4.28;;
52432;SDS011;38352;53.244;6.594;2023-03-16T05:26:48;8.07;;;4.22;;
52432;SDS011;38352;53.244;6.594;2023-03-16T05:29:14;9.75;;;4.50;;
52432;SDS011;38352;53.244;6.594;2023-03-16T05:31:40;8.20;;;4.22;;
52432;SDS011;38352;53.244;6.594;2023-03-16T05:34:06;10.60;;;4.45;;
52432;SDS011;38352;53.244;6.594;2023-03-16T05:36:32;8.23;;;4.18;;
52432;SDS011;38352;53.244;6.594;2023-03-16T05:39:00;10.82;;;3.97;;
52432;SDS011;38352;53.244;6.594;2023-03-16T05:41:26;9.32;;;4.20;;
52432;SDS011;38352;53.244;6.594;2023-03-16T05:43:52;9.05;;;4.07;;
52432;SDS011;38352;53.244;6.594;2023-03-16T05:46:18;7.57;;;4.15;;
52432;SDS011;38352;53.244;6.594;2023-03-16T05:48:44;8.23;;;4.13;;
52432;SDS011;38352;53.244;6.594;2023-03-16T05:51:10;7.18;;;4.25;;
52432;SDS011;38352;53.244;6.594;2023-03-16T05:53:38;9.52;;;4.38;;
52432;SDS011;38352;53.244;6.594;2023-03-16T05:56:04;11.32;;;4.65;;
52432;SDS011;38352;53.244;6.594;2023-03-16T05:58:30;8.93;;;4.30;;
52432;SDS011;38352;53.244;6.594;2023-03-16T06:01:00;9.45;;;4.30;;
52432;SDS011;38352;53.244;6.594;2023-03-16T06:03:27;10.07;;;4.50;;
52432;SDS011;38352;53.244;6.594;2023-03-16T06:05:53;10.95;;;4.78;;
52432;SDS011;38352;53.244;6.594;2023-03-16T06:08:19;13.98;;;4.45;;
52432;SDS011;38352;53.244;6.594;2023-03-16T06:10:45;8.82;;;4.47;;
52432;SDS011;38352;53.244;6.594;2023-03-16T06:13:12;11.43;;;5.10;;
52432;SDS011;38352;53.244;6.594;2023-03-16T06:15:39;7.68;;;4.13;;
52432;SDS011;38352;53.244;6.594;2023-03-16T06:18:05;12.38;;;4.80;;
52432;SDS011;38352;53.244;6.594;2023-03-16T06:20:31;10.32;;;4.38;;
52432;SDS011;38352;53.244;6.594;2023-03-16T06:22:57;9.57;;;4.38;;
52432;SDS011;38352;53.244;6.594;2023-03-16T06:25:24;7.22;;;4.45;;
52432;SDS011;38352;53.244;6.594;2023-03-16T06:27:50;7.65;;;4.32;;
52432;SDS011;38352;53.244;6.594;2023-03-16T06:30:16;9.88;;;4.47;;
52432;SDS011;38352;53.244;6.594;2023-03-16T06:32:42;7.82;;;4.78;;
52432;SDS011;38352;53.244;6.594;2023-03-16T06:35:09;8.50;;;4.75;;
52432;SDS011;38352;53.244;6.594;2023-03-16T06:37:36;8.35;;;4.63;;
52432;SDS011;38352;53.244;6.594;2023-03-16T06:40:02;9.48;;;4.50;;
52432;SDS011;38352;53.244;6.594;2023-03-16T06:42:28;8.40;;;4.40;;
52432;SDS011;38352;53.244;6.594;2023-03-16T06:44:54;7.03;;;4.18;;
52432;SDS011;38352;53.244;6.594;2023-03-16T06:47:20;10.68;;;4.90;;
52432;SDS011;38352;53.244;6.594;2023-03-16T06:49:47;7.68;;;4.13;;
52432;SDS011;38352;53.244;6.594;2023-03-16T06:52:15;7.97;;;4.40;;
52432;SDS011;38352;53.244;6.594;2023-03-16T06:54:41;8.82;;;4.70;;
52432;SDS011;38352;53.244;6.594;2023-03-16T06:57:07;8.60;;;4.38;;
52432;SDS011;38352;53.244;6.594;2023-03-16T06:59:33;8.00;;;4.53;;
52432;SDS011;38352;53.244;6.594;2023-03-16T07:01:59;7.47;;;4.00;;
52432;SDS011;38352;53.244;6.594;2023-03-16T07:04:26;9.80;;;5.10;;
52432;SDS011;38352;53.244;6.594;2023-03-16T07:06:52;8.75;;;4.57;;
52432;SDS011;38352;53.244;6.594;2023-03-16T07:09:18;12.80;;;4.50;;
52432;SDS011;38352;53.244;6.594;2023-03-16T07:11:46;10.80;;;4.25;;
52432;SDS011;38352;53.244;6.594;2023-03-16T07:14:12;8.50;;;4.63;;
52432;SDS011;38352;53.244;6.594;2023-03-16T07:16:38;8.45;;;4.30;;
52432;SDS011;38352;53.244;6.594;2023-03-16T07:19:04;8.95;;;4.65;;
52432;SDS011;38352;53.244;6.594;2023-03-16T07:21:30;9.57;;;4.15;;
52432;SDS011;38352;53.244;6.594;2023-03-16T07:24:03;9.45;;;4.35;;
52432;SDS011;38352;53.244;6.594;2023-03-16T07:26:29;10.40;;;4.30;;
52432;SDS011;38352;53.244;6.594;2023-03-16T07:28:57;7.82;;;3.80;;
52432;SDS011;38352;53.244;6.594;2023-03-16T07:31:23;7.57;;;3.80;;
52432;SDS011;38352;53.244;6.594;2023-03-16T07:33:49;7.45;;;4.32;;
52432;SDS011;38352;53.244;6.594;2023-03-16T07:36:16;7.95;;;4.32;;
52432;SDS011;38352;53.244;6.594;2023-03-16T07:38:42;12.20;;;4.22;;
52432;SDS011;38352;53.244;6.594;2023-03-16T07:41:08;9.73;;;4.65;;
52432;SDS011;38352;53.244;6.594;2023-03-16T07:43:34;8.02;;;3.97;;
52432;SDS011;38352;53.244;6.594;2023-03-16T07:46:00;10.35;;;4.07;;
52432;SDS011;38352;53.244;6.594;2023-03-16T07:48:26;9.45;;;3.78;;
52432;SDS011;38352;53.244;6.594;2023-03-16T07:50:53;7.70;;;3.97;;
52432;SDS011;38352;53.244;6.594;2023-03-16T07:53:19;8.88;;;4.20;;
52432;SDS011;38352;53.244;6.594;2023-03-16T07:55:45;8.13;;;4.20;;
52432;SDS011;38352;53.244;6.594;2023-03-16T07:58:11;7.22;;;4.35;;
52432;SDS011;38352;53.244;6.594;2023-03-16T08:00:38;7.63;;;4.20;;
52432;SDS011;38352;53.244;6.594;2023-03-16T08:03:04;9.90;;;3.88;;
52432;SDS011;38352;53.244;6.594;2023-03-16T08:05:30;9.13;;;3.67;;
52432;SDS011;38352;53.244;6.594;2023-03-16T08:07:57;7.60;;;4.03;;
52432;SDS011;38352;53.244;6.594;2023-03-16T08:10:23;8.55;;;4.30;;
52432;SDS011;38352;53.244;6.594;2023-03-16T08:12:50;7.40;;;4.43;;
52432;SDS011;38352;53.244;6.594;2023-03-16T08:15:17;6.97;;;3.72;;
52432;SDS011;38352;53.244;6.594;2023-03-16T08:17:43;7.53;;;3.72;;
52432;SDS011;38352;53.244;6.594;2023-03-16T08:20:10;9.45;;;3.72;;
52432;SDS011;38352;53.244;6.594;2023-03-16T08:22:39;8.20;;;3.85;;
52432;SDS011;38352;53.244;6.594;2023-03-16T08:25:05;6.90;;;3.85;;
52432;SDS011;38352;53.244;6.594;2023-03-16T08:27:34;9.02;;;4.10;;
52432;SDS011;38352;53.244;6.594;2023-03-16T08:30:02;7.97;;;4.32;;
52432;SDS011;38352;53.244;6.594;2023-03-16T08:32:29;9.15;;;4.80;;
52432;SDS011;38352;53.244;6.594;2023-03-16T08:34:55;9.57;;;4.22;;
52432;SDS011;38352;53.244;6.594;2023-03-16T08:37:22;7.65;;;4.38;;
52432;SDS011;38352;53.244;6.594;2023-03-16T08:39:49;10.23;;;4.20;;
52432;SDS011;38352;53.244;6.594;2023-03-16T08:42:18;11.27;;;4.97;;
52432;SDS011;38352;53.244;6.594;2023-03-16T08:44:45;9.25;;;4.18;;
52432;SDS011;38352;53.244;6.594;2023-03-16T08:47:15;7.75;;;4.47;;
52432;SDS011;38352;53.244;6.594;2023-03-16T08:49:42;8.77;;;4.55;;
52432;SDS011;38352;53.244;6.594;2023-03-16T08:52:08;7.90;;;4.35;;
52432;SDS011;38352;53.244;6.594;2023-03-16T08:54:35;8.45;;;4.53;;
52432;SDS011;38352;53.244;6.594;2023-03-16T08:57:01;9.27;;;3.75;;
52432;SDS011;38352;53.244;6.594;2023-03-16T08:59:28;9.23;;;4.47;;
52432;SDS011;38352;53.244;6.594;2023-03-16T09:01:54;7.53;;;4.18;;
52432;SDS011;38352;53.244;6.594;2023-03-16T09:04:20;9.20;;;3.80;;
52432;SDS011;38352;53.244;6.594;2023-03-16T09:06:47;6.57;;;3.95;;
52432;SDS011;38352;53.244;6.594;2023-03-16T09:09:17;6.50;;;4.13;;
52432;SDS011;38352;53.244;6.594;2023-03-16T09:11:43;10.90;;;4.18;;
52432;SDS011;38352;53.244;6.594;2023-03-16T09:14:11;9.32;;;4.13;;
52432;SDS011;38352;53.244;6.594;2023-03-16T09:16:38;9.32;;;4.28;;
52432;SDS011;38352;53.244;6.594;2023-03-16T09:19:04;8.52;;;4.32;;
52432;SDS011;38352;53.244;6.594;2023-03-16T09:21:31;7.18;;;4.05;;
52432;SDS011;38352;53.244;6.594;2023-03-16T09:24:00;8.57;;;4.70;;
52432;SDS011;38352;53.244;6.594;2023-03-16T09:26:26;8.20;;;4.25;;
52432;SDS011;38352;53.244;6.594;2023-03-16T09:28:52;8.13;;;4.32;;
52432;SDS011;38352;53.244;6.594;2023-03-16T09:31:19;10.50;;;4.70;;
52432;SDS011;38352;53.244;6.594;2023-03-16T09:33:46;8.93;;;4.75;;
52432;SDS011;38352;53.244;6.594;2023-03-16T09:36:13;9.98;;;4.88;;
52432;SDS011;38352;53.244;6.594;2023-03-16T09:38:40;10.60;;;5.35;;
52432;SDS011;38352;53.244;6.594;2023-03-16T09:46:07;10.68;;;5.82;;
52432;SDS011;38352;53.244;6.594;2023-03-16T09:48:36;12.60;;;4.57;;
52432;SDS011;38352;53.244;6.594;2023-03-16T09:51:04;11.32;;;5.68;;
52432;SDS011;38352;53.244;6.594;2023-03-16T09:56:02;9.18;;;5.25;;
52432;SDS011;38352;53.244;6.594;2023-03-16T09:58:29;10.50;;;4.68;;
52432;SDS011;38352;53.244;6.594;2023-03-16T10:01:01;11.73;;;4.43;;
52432;SDS011;38352;53.244;6.594;2023-03-16T10:06:10;9.30;;;4.43;;
52432;SDS011;38352;53.244;6.594;2023-03-16T10:08:51;11.77;;;4.93;;
52432;SDS011;38352;53.244;6.594;2023-03-16T10:16:47;8.45;;;4.47;;
52432;SDS011;38352;53.244;6.594;2023-03-16T10:19:23;10.25;;;4.78;;
52432;SDS011;38352;53.244;6.594;2023-03-16T10:21:52;10.95;;;5.05;;
52432;SDS011;38352;53.244;6.594;2023-03-16T10:26:55;10.95;;;4.90;;
52432;SDS011;38352;53.244;6.594;2023-03-16T10:29:24;9.35;;;4.85;;
52432;SDS011;38352;53.244;6.594;2023-03-16T10:31:53;9.35;;;4.85;;
52432;SDS011;38352;53.244;6.594;2023-03-16T10:34:19;10.25;;;4.93;;
52432;SDS011;38352;53.244;6.594;2023-03-16T10:36:47;9.25;;;4.93;;
52432;SDS011;38352;53.244;6.594;2023-03-16T10:39:14;10.30;;;5.40;;
52432;SDS011;38352;53.244;6.594;2023-03-16T10:41:44;8.52;;;4.90;;
52432;SDS011;38352;53.244;6.594;2023-03-16T10:44:14;8.85;;;5.03;;
52432;SDS011;38352;53.244;6.594;2023-03-16T10:46:42;10.65;;;5.38;;
52432;SDS011;38352;53.244;6.594;2023-03-16T10:49:24;8.45;;;4.63;;
52432;SDS011;38352;53.244;6.594;2023-03-16T10:51:56;9.40;;;5.05;;
52432;SDS011;38352;53.244;6.594;2023-03-16T10:54:27;9.38;;;4.88;;
52432;SDS011;38352;53.244;6.594;2023-03-16T10:56:55;8.80;;;5.00;;
52432;SDS011;38352;53.244;6.594;2023-03-16T11:01:50;9.27;;;5.03;;
52432;SDS011;38352;53.244;6.594;2023-03-16T11:04:17;11.32;;;5.50;;
52432;SDS011;38352;53.244;6.594;2023-03-16T11:06:48;10.27;;;5.07;;
52432;SDS011;38352;53.244;6.594;2023-03-16T11:09:18;7.80;;;4.90;;
52432;SDS011;38352;53.244;6.594;2023-03-16T11:11:46;8.95;;;4.93;;
52432;SDS011;38352;53.244;6.594;2023-03-16T11:14:13;10.88;;;5.00;;
52432;SDS011;38352;53.244;6.594;2023-03-16T11:16:41;8.93;;;4.57;;
52432;SDS011;38352;53.244;6.594;2023-03-16T11:19:20;12.52;;;5.50;;
52432;SDS011;38352;53.244;6.594;2023-03-16T11:26:59;9.38;;;4.53;;
52432;SDS011;38352;53.244;6.594;2023-03-16T11:31:55;9.75;;;4.75;;
52432;SDS011;38352;53.244;6.594;2023-03-16T11:34:29;9.98;;;4.95;;
52432;SDS011;38352;53.244;6.594;2023-03-16T11:36:56;13.77;;;5.53;;
52432;SDS011;38352;53.244;6.594;2023-03-16T11:39:29;8.02;;;4.07;;
52432;SDS011;38352;53.244;6.594;2023-03-16T11:50:09;10.50;;;4.80;;
52432;SDS011;38352;53.244;6.594;2023-03-16T11:55:28;9.00;;;4.55;;
52432;SDS011;38352;53.244;6.594;2023-03-16T11:58:00;10.55;;;5.38;;
52432;SDS011;38352;53.244;6.594;2023-03-16T12:05:55;9.65;;;4.55;;
52432;SDS011;38352;53.244;6.594;2023-03-16T12:15:42;7.72;;;3.90;;
52432;SDS011;38352;53.244;6.594;2023-03-16T12:18:18;7.80;;;3.88;;
52432;SDS011;38352;53.244;6.594;2023-03-16T12:20:51;10.30;;;4.50;;
52432;SDS011;38352;53.244;6.594;2023-03-16T12:23:52;8.15;;;3.83;;
52432;SDS011;38352;53.244;6.594;2023-03-16T12:26:11;7.28;;;3.53;;
52432;SDS011;38352;53.244;6.594;2023-03-16T12:28:38;6.57;;;3.55;;
52432;SDS011;38352;53.244;6.594;2023-03-16T12:31:16;9.48;;;4.18;;
52432;SDS011;38352;53.244;6.594;2023-03-16T12:39:04;8.35;;;4.40;;
52432;SDS011;38352;53.244;6.594;2023-03-16T12:44:16;8.93;;;4.55;;
52432;SDS011;38352;53.244;6.594;2023-03-16T12:49:11;8.75;;;4.20;;
52432;SDS011;38352;53.244;6.594;2023-03-16T12:51:39;11.70;;;4.30;;
52432;SDS011;38352;53.244;6.594;2023-03-16T12:54:21;8.38;;;3.50;;
52432;SDS011;38352;53.244;6.594;2023-03-16T12:56:48;6.43;;;4.00;;
52432;SDS011;38352;53.244;6.594;2023-03-16T12:59:19;8.80;;;4.18;;
52432;SDS011;38352;53.244;6.594;2023-03-16T13:01:55;8.13;;;3.42;;
52432;SDS011;38352;53.244;6.594;2023-03-16T13:04:29;8.00;;;4.05;;
52432;SDS011;38352;53.244;6.594;2023-03-16T13:07:03;6.57;;;3.75;;
52432;SDS011;38352;53.244;6.594;2023-03-16T13:09:33;6.13;;;3.80;;
52432;SDS011;38352;53.244;6.594;2023-03-16T13:11:59;7.03;;;3.63;;
52432;SDS011;38352;53.244;6.594;2023-03-16T13:14:31;10.75;;;4.18;;
52432;SDS011;38352;53.244;6.594;2023-03-16T13:17:31;7.30;;;3.28;;
52432;SDS011;38352;53.244;6.594;2023-03-16T13:19:58;7.03;;;3.63;;
52432;SDS011;38352;53.244;6.594;2023-03-16T13:22:30;8.27;;;3.88;;
52432;SDS011;38352;53.244;6.594;2023-03-16T13:27:43;7.45;;;3.88;;
52432;SDS011;38352;53.244;6.594;2023-03-16T13:30:24;7.82;;;4.03;;
52432;SDS011;38352;53.244;6.594;2023-03-16T13:32:51;13.77;;;4.00;;
52432;SDS011;38352;53.244;6.594;2023-03-16T13:35:18;8.15;;;4.18;;
52432;SDS011;38352;53.244;6.594;2023-03-16T13:37:44;5.03;;;3.00;;
52432;SDS011;38352;53.244;6.594;2023-03-16T13:40:18;8.82;;;3.38;;
52432;SDS011;38352;53.244;6.594;2023-03-16T13:42:46;8.10;;;3.90;;
52432;SDS011;38352;53.244;6.594;2023-03-16T13:45:27;5.85;;;3.17;;
52432;SDS011;38352;53.244;6.594;2023-03-16T13:47:53;6.28;;;3.75;;
52432;SDS011;38352;53.244;6.594;2023-03-16T13:50:20;8.13;;;3.65;;
52432;SDS011;38352;53.244;6.594;2023-03-16T13:52:55;6.55;;;3.67;;
52432;SDS011;38352;53.244;6.594;2023-03-16T13:55:24;8.38;;;3.80;;
52432;SDS011;38352;53.244;6.594;2023-03-16T13:57:51;6.70;;;3.58;;
52432;SDS011;38352;53.244;6.594;2023-03-16T14:00:22;6.57;;;3.60;;
52432;SDS011;38352;53.244;6.594;2023-03-16T14:02:53;7.18;;;3.25;;
52432;SDS011;38352;53.244;6.594;2023-03-16T14:05:24;5.60;;;3.28;;
52432;SDS011;38352;53.244;6.594;2023-03-16T14:07:51;6.95;;;3.28;;
52432;SDS011;38352;53.244;6.594;2023-03-16T14:10:18;6.40;;;3.53;;
52432;SDS011;38352;53.244;6.594;2023-03-16T14:12:54;5.78;;;3.33;;
52432;SDS011;38352;53.244;6.594;2023-03-16T14:15:24;6.97;;;3.58;;
52432;SDS011;38352;53.244;6.594;2023-03-16T14:17:50;6.60;;;4.05;;
52432;SDS011;38352;53.244;6.594;2023-03-16T14:20:21;8.23;;;4.00;;
52432;SDS011;38352;53.244;6.594;2023-03-16T14:22:51;7.07;;;3.15;;
52432;SDS011;38352;53.244;6.594;2023-03-16T14:25:24;6.82;;;3.72;;
52432;SDS011;38352;53.244;6.594;2023-03-16T14:27:58;8.65;;;3.67;;
52432;SDS011;38352;53.244;6.594;2023-03-16T14:32:56;7.50;;;3.95;;
52432;SDS011;38352;53.244;6.594;2023-03-16T14:35:26;6.70;;;3.30;;
52432;SDS011;38352;53.244;6.594;2023-03-16T14:37:53;9.30;;;3.83;;
52432;SDS011;38352;53.244;6.594;2023-03-16T14:40:28;6.72;;;3.78;;
52432;SDS011;38352;53.244;6.594;2023-03-16T14:42:58;6.65;;;3.97;;
52432;SDS011;38352;53.244;6.594;2023-03-16T14:45:35;7.32;;;3.85;;
52432;SDS011;38352;53.244;6.594;2023-03-16T14:48:03;8.90;;;3.58;;
52432;SDS011;38352;53.244;6.594;2023-03-16T14:50:30;6.07;;;3.40;;
52432;SDS011;38352;53.244;6.594;2023-03-16T14:52:57;7.30;;;3.70;;
52432;SDS011;38352;53.244;6.594;2023-03-16T14:55:23;8.68;;;3.88;;
52432;SDS011;38352;53.244;6.594;2023-03-16T14:57:51;7.85;;;3.42;;
52432;SDS011;38352;53.244;6.594;2023-03-16T15:00:18;6.43;;;3.72;;
52432;SDS011;38352;53.244;6.594;2023-03-16T15:05:47;7.28;;;4.15;;
52432;SDS011;38352;53.244;6.594;2023-03-16T15:08:16;6.15;;;3.65;;
52432;SDS011;38352;53.244;6.594;2023-03-16T15:10:44;7.13;;;3.25;;
52432;SDS011;38352;53.244;6.594;2023-03-16T15:13:14;6.65;;;3.65;;
52432;SDS011;38352;53.244;6.594;2023-03-16T15:15:59;6.13;;;3.72;;
52432;SDS011;38352;53.244;6.594;2023-03-16T15:18:26;6.07;;;2.92;;
52432;SDS011;38352;53.244;6.594;2023-03-16T15:20:52;5.65;;;3.03;;
52432;SDS011;38352;53.244;6.594;2023-03-16T15:23:19;6.82;;;3.35;;
52432;SDS011;38352;53.244;6.594;2023-03-16T15:25:45;7.88;;;3.13;;
52432;SDS011;38352;53.244;6.594;2023-03-16T15:28:19;8.95;;;3.58;;
52432;SDS011;38352;53.244;6.594;2023-03-16T15:30:47;7.60;;;3.67;;
52432;SDS011;38352;53.244;6.594;2023-03-16T15:33:13;8.00;;;3.47;;
52432;SDS011;38352;53.244;6.594;2023-03-16T15:35:40;9.90;;;3.95;;
52432;SDS011;38352;53.244;6.594;2023-03-16T15:38:10;7.05;;;3.33;;
52432;SDS011;38352;53.244;6.594;2023-03-16T15:40:37;4.82;;;2.72;;
52432;SDS011;38352;53.244;6.594;2023-03-16T15:43:05;7.03;;;3.85;;
52432;SDS011;38352;53.244;6.594;2023-03-16T15:45:34;8.32;;;3.85;;
52432;SDS011;38352;53.244;6.594;2023-03-16T15:48:01;8.13;;;3.45;;
52432;SDS011;38352;53.244;6.594;2023-03-16T15:50:27;7.28;;;3.40;;
52432;SDS011;38352;53.244;6.594;2023-03-16T15:52:58;10.32;;;3.20;;
52432;SDS011;38352;53.244;6.594;2023-03-16T15:55:32;6.18;;;3.40;;
52432;SDS011;38352;53.244;6.594;2023-03-16T15:58:00;7.22;;;3.10;;
52432;SDS011;38352;53.244;6.594;2023-03-16T16:00:30;6.80;;;3.50;;
52432;SDS011;38352;53.244;6.594;2023-03-16T16:02:57;6.18;;;3.50;;
52432;SDS011;38352;53.244;6.594;2023-03-16T16:05:24;7.72;;;3.80;;
52432;SDS011;38352;53.244;6.594;2023-03-16T16:07:51;6.10;;;3.53;;
52432;SDS011;38352;53.244;6.594;2023-03-16T16:10:17;6.65;;;2.97;;